Terminal Aerodrome Forecast
Issued by NWS

Home | Current Version | Previous Version | Text Only | Print | Product List | Glossary On
Versions: 1 2 3 4 5 6 7 8 9 10 11 12 13 14 15 16 17 18 19 20
000
FTUS43 KDTX 200306 AAB
TAFPTK
TAF AMD
KPTK 200306Z 2003/2024 09005KT 3SM BR OVC004
      TEMPO 2003/2005 1SM BR VV002
     FM201300 04006KT 2SM -RA BR BKN005 OVC012
     FM201700 06006KT 3SM -DZ BR OVC005
     FM201900 12006KT 4SM BR BKN008 OVC015
     FM202200 18006KT 5SM BR BKN015 OVC025=

USA.gov is the U.S. government's official web portal to all federal, state and local government web resources and services.